createdAt,value
2018-02-08T00:02:03.960Z,-3.70
2018-02-08T00:04:30.029Z,-3.70
2018-02-08T00:06:56.108Z,-3.70
2018-02-08T00:09:22.193Z,-3.70
2018-02-08T00:11:48.281Z,-3.70
2018-02-08T00:14:14.363Z,-3.80
2018-02-08T00:16:40.441Z,-3.90
2018-02-08T00:19:06.528Z,-4.00
2018-02-08T00:21:32.779Z,-4.00
2018-02-08T00:23:58.882Z,-4.00
2018-02-08T00:26:24.941Z,-4.00
2018-02-08T00:28:51.022Z,-4.00
2018-02-08T00:31:17.929Z,-3.90
2018-02-08T00:33:44.716Z,-3.90
2018-02-08T00:36:10.801Z,-3.80
2018-02-08T00:38:36.909Z,-3.80
2018-02-08T00:41:02.994Z,-3.80
2018-02-08T00:43:29.814Z,-3.80
2018-02-08T00:45:55.922Z,-3.70
2018-02-08T00:48:22.002Z,-3.70
2018-02-08T00:50:48.811Z,-3.70
2018-02-08T00:53:14.923Z,-3.80
2018-02-08T00:55:41.053Z,-3.80
2018-02-08T00:58:07.127Z,-3.80
2018-02-08T01:00:33.225Z,-3.90
2018-02-08T01:02:59.306Z,-4.00
2018-02-08T01:05:25.375Z,-4.00
2018-02-08T01:07:51.454Z,-3.90
2018-02-08T01:10:17.535Z,-3.90
2018-02-08T01:12:43.637Z,-3.90
2018-02-08T01:15:09.718Z,-4.00
2018-02-08T01:17:35.799Z,-4.00
2018-02-08T01:20:01.895Z,-3.90
2018-02-08T01:22:28.034Z,-3.80
2018-02-08T01:24:54.101Z,-3.80
2018-02-08T01:27:20.926Z,-3.80
2018-02-08T01:29:47.002Z,-3.80
2018-02-08T01:32:13.089Z,-3.80
2018-02-08T01:34:39.978Z,-3.80
2018-02-08T01:37:06.061Z,-3.80
2018-02-08T01:39:32.882Z,-3.80
2018-02-08T01:41:58.942Z,-3.80
2018-02-08T01:44:25.067Z,-3.80
2018-02-08T01:46:51.156Z,-3.80
2018-02-08T01:49:37.369Z,-3.80
2018-02-08T01:52:04.202Z,-3.80
2018-02-08T01:54:30.282Z,-3.80
2018-02-08T01:56:56.763Z,-3.90
2018-02-08T01:59:23.569Z,-3.90
2018-02-08T02:01:49.646Z,-3.80
2018-02-08T02:04:15.730Z,-3.80
2018-02-08T02:06:41.813Z,-3.80
2018-02-08T02:09:07.915Z,-3.90
2018-02-08T02:11:34.030Z,-3.80
2018-02-08T02:14:00.094Z,-3.90
2018-02-08T02:16:26.230Z,-4.00
2018-02-08T02:18:52.322Z,-4.00
2018-02-08T02:21:19.241Z,-3.90
2018-02-08T02:23:45.321Z,-3.90
2018-02-08T02:26:11.405Z,-3.90
2018-02-08T02:28:37.494Z,-4.10
2018-02-08T02:31:03.594Z,-4.20
2018-02-08T02:33:29.699Z,-4.20
2018-02-08T02:35:55.774Z,-4.20
2018-02-08T02:38:21.855Z,-4.10
2018-02-08T02:40:47.941Z,-4.10
2018-02-08T02:43:14.009Z,-4.10
2018-02-08T02:45:40.097Z,-4.10
2018-02-08T02:48:06.185Z,-4.10
2018-02-08T02:50:32.266Z,-4.10
2018-02-08T02:52:59.083Z,-4.20
2018-02-08T02:55:25.166Z,-4.10
2018-02-08T02:57:51.241Z,-4.20
2018-02-08T03:00:18.835Z,-4.20
2018-02-08T03:02:44.938Z,-4.30
2018-02-08T03:05:11.770Z,-4.50
2018-02-08T03:07:38.594Z,-4.60
2018-02-08T03:10:05.317Z,-4.60
2018-02-08T03:12:31.477Z,-4.60
2018-02-08T03:14:57.556Z,-4.50
2018-02-08T03:17:23.649Z,-4.40
2018-02-08T03:19:50.489Z,-4.40
2018-02-08T03:22:17.526Z,-4.50
2018-02-08T03:24:44.374Z,-4.70
2018-02-08T03:27:10.448Z,-4.80
2018-02-08T03:29:36.553Z,-4.70
2018-02-08T03:32:02.649Z,-4.60
2018-02-08T03:34:29.468Z,-4.60
2018-02-08T03:36:55.547Z,-4.70
2018-02-08T03:39:21.621Z,-4.70
2018-02-08T03:41:47.770Z,-4.60
2018-02-08T03:44:13.846Z,-4.50
2018-02-08T03:46:39.946Z,-4.50
2018-02-08T03:49:06.069Z,-4.70
2018-02-08T03:51:32.574Z,-4.60
2018-02-08T03:53:58.655Z,-4.50
2018-02-08T03:56:24.722Z,-4.60
2018-02-08T03:58:50.804Z,-4.60
2018-02-08T04:01:17.376Z,-5.50
2018-02-08T04:03:43.465Z,-4.70
2018-02-08T04:06:09.545Z,-4.70
2018-02-08T04:08:35.633Z,-4.70
2018-02-08T04:11:01.721Z,-4.70
2018-02-08T04:13:27.797Z,-4.60
2018-02-08T04:15:54.118Z,-4.60
2018-02-08T04:18:20.198Z,-4.60
2018-02-08T04:20:46.294Z,-4.60
2018-02-08T04:23:13.125Z,-4.60
2018-02-08T04:25:39.207Z,-4.60
2018-02-08T04:28:06.072Z,-4.60
2018-02-08T04:30:32.194Z,-4.60
2018-02-08T04:32:58.281Z,-4.60
2018-02-08T04:35:24.379Z,-4.70
2018-02-08T04:37:50.486Z,-4.70
2018-02-08T04:40:35.257Z,-4.70
2018-02-08T04:43:19.952Z,-4.70
2018-02-08T04:46:04.720Z,-4.70
2018-02-08T04:48:30.789Z,-4.80
2018-02-08T04:50:56.876Z,-4.80
2018-02-08T04:53:22.961Z,-4.80
2018-02-08T04:55:49.108Z,-4.90
2018-02-08T04:58:15.185Z,-4.90
2018-02-08T05:00:41.290Z,-4.90
2018-02-08T05:03:07.428Z,-4.80
2018-02-08T05:05:33.497Z,-4.70
2018-02-08T05:07:59.649Z,-4.70
2018-02-08T05:10:25.737Z,-4.70
2018-02-08T05:12:51.837Z,-4.60
2018-02-08T05:15:17.943Z,-4.60
2018-02-08T05:17:44.011Z,-4.60
2018-02-08T05:20:10.101Z,-4.60
2018-02-08T05:22:36.182Z,-4.60
2018-02-08T05:25:03.221Z,-4.80
2018-02-08T05:27:30.053Z,-4.80
2018-02-08T05:29:56.122Z,-4.90
2018-02-08T05:32:22.197Z,-5.00
2018-02-08T05:34:48.286Z,-5.10
2018-02-08T05:37:14.401Z,-5.10
2018-02-08T05:39:40.487Z,-5.10
2018-02-08T05:42:06.577Z,-5.20
2018-02-08T05:44:32.657Z,-5.10
2018-02-08T05:46:58.737Z,-5.00
2018-02-08T05:49:24.854Z,-5.00
2018-02-08T05:51:50.927Z,-5.00
2018-02-08T05:54:17.012Z,-4.90
2018-02-08T05:56:43.114Z,-4.90
2018-02-08T05:59:09.185Z,-4.80
2018-02-08T06:01:35.702Z,-4.80
2018-02-08T06:04:01.781Z,-4.80
2018-02-08T06:06:34.777Z,-4.80
2018-02-08T06:09:00.855Z,-4.90
2018-02-08T06:11:26.945Z,-4.90
2018-02-08T06:13:53.203Z,-5.00
2018-02-08T06:16:19.294Z,-4.90
2018-02-08T06:18:45.385Z,-4.80
2018-02-08T06:21:11.481Z,-4.80
2018-02-08T06:23:38.349Z,-4.80
2018-02-08T06:26:04.425Z,-4.80
2018-02-08T06:28:30.498Z,-4.80
2018-02-08T06:30:56.976Z,-4.80
2018-02-08T06:33:23.393Z,-4.90
2018-02-08T06:35:49.462Z,-4.80
2018-02-08T06:38:15.546Z,-4.50
2018-02-08T06:40:41.609Z,-4.50
2018-02-08T06:43:07.725Z,-4.40
2018-02-08T06:45:33.806Z,-4.30
2018-02-08T06:47:59.866Z,-3.90
2018-02-08T06:50:25.955Z,-3.90
2018-02-08T06:52:52.037Z,-4.10
2018-02-08T06:55:18.129Z,-4.20
2018-02-08T06:57:44.205Z,-4.20
2018-02-08T07:00:11.038Z,-4.20
2018-02-08T07:02:37.123Z,-4.30
2018-02-08T07:05:03.203Z,-4.30
2018-02-08T07:07:30.023Z,-4.30
2018-02-08T07:09:56.112Z,-4.20
2018-02-08T07:12:22.181Z,-4.40
2018-02-08T07:14:48.261Z,-4.60
2018-02-08T07:17:14.317Z,-4.60
2018-02-08T07:19:40.393Z,-4.60
2018-02-08T07:22:06.454Z,-4.50
2018-02-08T07:24:32.849Z,-4.50
2018-02-08T07:26:58.921Z,-4.20
2018-02-08T07:29:26.530Z,-4.20
2018-02-08T07:31:52.597Z,-4.20
2018-02-08T07:34:18.673Z,-4.20
2018-02-08T07:36:44.766Z,-4.10
2018-02-08T07:39:11.581Z,-4.00
2018-02-08T07:41:37.661Z,-4.00
2018-02-08T07:44:03.729Z,-4.00
2018-02-08T07:46:29.798Z,-4.00
2018-02-08T07:48:56.633Z,-3.90
2018-02-08T07:51:23.670Z,-3.80
2018-02-08T07:53:49.754Z,-3.60
2018-02-08T07:56:15.821Z,-3.40
2018-02-08T07:58:41.910Z,-3.20
2018-02-08T08:01:07.997Z,-3.00
2018-02-08T08:03:34.139Z,-2.80
2018-02-08T08:06:00.219Z,-2.80
2018-02-08T08:08:26.315Z,-2.80
2018-02-08T08:10:52.428Z,-2.90
2018-02-08T08:13:18.530Z,-2.90
2018-02-08T08:15:44.594Z,-2.80
2018-02-08T08:18:10.658Z,-2.60
2018-02-08T08:20:37.505Z,-2.60
2018-02-08T08:23:04.310Z,-2.50
2018-02-08T08:25:30.387Z,-2.40
2018-02-08T08:27:56.474Z,-2.30
2018-02-08T08:30:22.534Z,-2.20
2018-02-08T08:32:49.386Z,-2.20
2018-02-08T08:35:15.430Z,-2.10
2018-02-08T08:37:41.509Z,-2.10
2018-02-08T08:40:07.962Z,-1.90
2018-02-08T08:42:34.046Z,-1.80
2018-02-08T08:45:00.121Z,-1.50
2018-02-08T08:47:26.189Z,-1.50
2018-02-08T08:49:59.146Z,-1.30
2018-02-08T08:52:25.215Z,-1.40
2018-02-08T08:54:51.290Z,-1.20
2018-02-08T08:57:17.435Z,-1.20
2018-02-08T08:59:43.477Z,-1.10
2018-02-08T09:02:09.538Z,-1.00
2018-02-08T09:04:35.966Z,-1.80
2018-02-08T09:07:02.034Z,-1.10
2018-02-08T09:09:28.113Z,-1.00
2018-02-08T09:11:54.229Z,-0.90
2018-02-08T09:14:20.261Z,-0.80
2018-02-08T09:16:46.337Z,-0.70
2018-02-08T09:19:12.405Z,-0.70
2018-02-08T09:21:39.213Z,-0.40
2018-02-08T09:24:05.277Z,-0.30
2018-02-08T09:26:32.169Z,-0.10
2018-02-08T09:28:58.228Z,0.00
2018-02-08T09:31:24.303Z,0.10
2018-02-08T09:33:50.382Z,0.20
2018-02-08T09:36:17.002Z,0.30
2018-02-08T09:38:43.065Z,0.50
2018-02-08T09:41:09.158Z,0.70
2018-02-08T09:43:35.234Z,0.70
2018-02-08T09:46:01.332Z,0.70
2018-02-08T09:48:27.407Z,0.80
2018-02-08T09:50:53.477Z,0.80
2018-02-08T09:53:19.549Z,0.90
2018-02-08T09:55:45.609Z,0.90
2018-02-08T09:58:11.698Z,1.00
2018-02-08T10:00:37.778Z,1.00
2018-02-08T10:03:03.875Z,0.90
2018-02-08T10:05:29.965Z,0.90
2018-02-08T10:07:56.049Z,1.10
2018-02-08T10:10:22.121Z,1.10
2018-02-08T10:12:48.192Z,1.20
2018-02-08T10:15:14.264Z,1.20
2018-02-08T10:17:40.350Z,1.30
2018-02-08T10:20:06.462Z,1.30
2018-02-08T10:22:32.542Z,1.40
2018-02-08T10:24:58.614Z,1.40
2018-02-08T10:27:24.717Z,1.60
2018-02-08T10:29:50.780Z,1.60
2018-02-08T10:32:16.849Z,1.50
2018-02-08T10:34:42.933Z,1.70
2018-02-08T10:37:10.497Z,1.80
2018-02-08T10:39:36.557Z,1.80
2018-02-08T10:42:03.449Z,1.80
2018-02-08T10:44:29.526Z,1.80
2018-02-08T10:46:55.593Z,1.80
2018-02-08T10:49:22.158Z,2.00
2018-02-08T10:51:48.974Z,2.00
2018-02-08T10:54:15.057Z,2.10
2018-02-08T10:56:41.130Z,2.10
2018-02-08T10:59:08.074Z,2.20
2018-02-08T11:01:34.170Z,2.40
2018-02-08T11:04:00.256Z,2.40
2018-02-08T11:06:26.338Z,2.50
2018-02-08T11:08:52.464Z,2.50
2018-02-08T11:11:18.537Z,2.60
2018-02-08T11:13:44.614Z,2.60
2018-02-08T11:16:10.691Z,2.50
2018-02-08T11:18:43.689Z,2.40
2018-02-08T11:21:09.793Z,2.30
2018-02-08T11:23:36.609Z,2.30
2018-02-08T11:26:02.697Z,2.40
2018-02-08T11:28:28.784Z,2.40
2018-02-08T11:30:54.936Z,2.50
2018-02-08T11:33:21.013Z,2.70
2018-02-08T11:35:47.089Z,2.90
2018-02-08T11:38:13.190Z,2.90
2018-02-08T11:40:39.266Z,3.00
2018-02-08T11:43:05.344Z,3.10
2018-02-08T11:45:31.436Z,3.00
2018-02-08T11:47:57.506Z,3.00
2018-02-08T11:50:23.642Z,3.10
2018-02-08T11:52:49.729Z,3.10
2018-02-08T11:55:16.563Z,3.30
2018-02-08T11:57:42.637Z,3.30
2018-02-08T12:00:08.714Z,3.40
2018-02-08T12:02:35.537Z,3.40
2018-02-08T12:05:01.610Z,3.50
2018-02-08T12:07:28.106Z,3.50
2018-02-08T12:09:54.185Z,3.60
2018-02-08T12:12:20.266Z,3.60
2018-02-08T12:14:46.341Z,3.70
2018-02-08T12:17:12.442Z,3.90
2018-02-08T12:19:38.517Z,3.90
2018-02-08T12:22:04.577Z,3.90
2018-02-08T12:24:30.668Z,3.80
2018-02-08T12:26:56.749Z,3.70
2018-02-08T12:29:22.814Z,3.70
2018-02-08T12:31:48.910Z,3.80
2018-02-08T12:34:14.985Z,3.80
2018-02-08T12:36:41.052Z,3.90
2018-02-08T12:39:08.681Z,3.90
2018-02-08T12:41:35.500Z,3.80
2018-02-08T12:44:01.569Z,3.90
2018-02-08T12:46:27.661Z,3.90
2018-02-08T12:48:53.748Z,4.00
2018-02-08T12:51:19.833Z,4.00
2018-02-08T12:53:45.909Z,4.00
2018-02-08T12:56:11.986Z,4.00
2018-02-08T12:58:38.801Z,4.10
2018-02-08T13:01:05.237Z,4.10
2018-02-08T13:03:31.313Z,4.10
2018-02-08T13:05:57.450Z,4.00
2018-02-08T13:08:23.501Z,3.80
2018-02-08T13:10:49.585Z,3.90
2018-02-08T13:13:15.661Z,3.80
2018-02-08T13:15:42.477Z,3.80
2018-02-08T13:18:08.553Z,4.00
2018-02-08T13:20:34.623Z,3.90
2018-02-08T13:23:00.709Z,3.90
2018-02-08T13:25:26.779Z,4.00
2018-02-08T13:27:52.849Z,4.00
2018-02-08T13:30:18.951Z,4.00
2018-02-08T13:32:45.786Z,4.00
2018-02-08T13:35:11.869Z,4.00
2018-02-08T13:37:37.990Z,4.00
2018-02-08T13:40:10.249Z,4.00
2018-02-08T13:42:36.339Z,3.90
2018-02-08T13:45:02.447Z,3.90
2018-02-08T13:47:31.484Z,3.90
2018-02-08T13:50:03.674Z,3.80
2018-02-08T13:52:36.211Z,3.70
2018-02-08T13:55:09.050Z,3.70
2018-02-08T13:57:35.143Z,3.60
2018-02-08T14:00:03.142Z,3.60
2018-02-08T14:02:29.233Z,3.50
2018-02-08T14:04:55.301Z,3.60
2018-02-08T14:07:21.402Z,3.70
2018-02-08T14:09:47.470Z,3.70
2018-02-08T14:12:13.553Z,3.70
2018-02-08T14:14:46.691Z,3.70
2018-02-08T14:17:12.794Z,3.70
2018-02-08T14:19:38.861Z,3.70
2018-02-08T14:22:04.949Z,3.70
2018-02-08T14:24:31.046Z,3.60
2018-02-08T14:26:57.131Z,3.50
2018-02-08T14:29:23.463Z,3.40
2018-02-08T14:31:51.081Z,3.30
2018-02-08T14:34:17.157Z,3.30
2018-02-08T14:36:43.250Z,3.20
2018-02-08T14:39:09.341Z,3.20
2018-02-08T14:41:35.426Z,3.20
2018-02-08T14:44:01.514Z,3.10
2018-02-08T14:46:27.900Z,3.10
2018-02-08T14:48:54.038Z,3.20
2018-02-08T14:51:20.778Z,3.20
2018-02-08T14:53:46.861Z,3.10
2018-02-08T14:56:12.939Z,3.10
2018-02-08T14:58:39.020Z,3.10
2018-02-08T15:01:05.090Z,3.00
2018-02-08T15:03:31.161Z,3.00
2018-02-08T15:05:57.298Z,2.90
2018-02-08T15:08:23.369Z,3.00
2018-02-08T15:10:49.442Z,2.80
2018-02-08T15:13:15.525Z,2.80
2018-02-08T15:15:41.600Z,2.80
2018-02-08T15:18:08.442Z,2.70
2018-02-08T15:20:34.534Z,2.70
2018-02-08T15:23:00.629Z,2.60
2018-02-08T15:25:26.716Z,2.50
2018-02-08T15:27:53.530Z,2.40
2018-02-08T15:30:26.487Z,2.30
2018-02-08T15:32:52.568Z,2.30
2018-02-08T15:35:18.641Z,2.10
2018-02-08T15:37:44.728Z,2.10
2018-02-08T15:40:10.813Z,2.00
2018-02-08T15:42:36.893Z,1.80
2018-02-08T15:45:02.993Z,1.80
2018-02-08T15:47:29.069Z,1.80
2018-02-08T15:49:55.564Z,1.80
2018-02-08T15:52:21.646Z,1.70
2018-02-08T15:54:48.129Z,1.70
2018-02-08T15:57:14.213Z,1.60
2018-02-08T15:59:40.281Z,1.60
2018-02-08T16:02:07.121Z,1.60
2018-02-08T16:04:33.320Z,1.50
2018-02-08T16:06:59.385Z,1.50
2018-02-08T16:09:25.526Z,1.50
2018-02-08T16:11:51.604Z,1.50
2018-02-08T16:14:17.677Z,1.50
2018-02-08T16:16:43.751Z,1.40
2018-02-08T16:19:09.833Z,1.30
2018-02-08T16:21:36.153Z,1.20
2018-02-08T16:24:02.235Z,1.10
2018-02-08T16:26:28.313Z,1.10
2018-02-08T16:28:54.388Z,1.00
2018-02-08T16:31:20.921Z,0.90
2018-02-08T16:33:46.998Z,0.80
2018-02-08T16:36:13.073Z,0.80
2018-02-08T16:38:39.218Z,0.70
2018-02-08T16:41:05.301Z,0.70
2018-02-08T16:43:31.373Z,0.70
2018-02-08T16:45:57.448Z,0.70
2018-02-08T16:48:23.561Z,0.70
2018-02-08T16:50:49.633Z,0.70
2018-02-08T16:53:15.739Z,0.70
2018-02-08T16:55:42.096Z,0.70
2018-02-08T16:58:08.902Z,0.60
2018-02-08T17:00:34.977Z,0.50
2018-02-08T17:03:01.049Z,0.40
2018-02-08T17:05:27.389Z,0.30
2018-02-08T17:07:53.453Z,0.10
2018-02-08T17:10:19.542Z,0.10
2018-02-08T17:12:45.614Z,0.10
2018-02-08T17:15:11.689Z,0.00
2018-02-08T17:17:37.782Z,0.00
2018-02-08T17:20:03.869Z,0.00
2018-02-08T17:22:29.949Z,-0.10
2018-02-08T17:24:56.137Z,-0.10
2018-02-08T17:27:22.196Z,-0.10
2018-02-08T17:29:48.257Z,-0.10
2018-02-08T17:32:14.346Z,-0.10
2018-02-08T17:34:40.418Z,0.00
2018-02-08T17:37:06.499Z,-0.10
2018-02-08T17:39:32.573Z,0.00
2018-02-08T17:41:58.637Z,0.00
2018-02-08T17:44:24.726Z,-0.70
2018-02-08T17:46:51.537Z,0.00
2018-02-08T17:49:18.509Z,-0.10
2018-02-08T17:51:44.616Z,-0.10
2018-02-08T17:54:10.688Z,-0.10
2018-02-08T17:56:36.769Z,-0.20
2018-02-08T17:59:02.857Z,-0.10
2018-02-08T18:01:28.933Z,-0.20
2018-02-08T18:03:55.757Z,-0.20
2018-02-08T18:06:21.830Z,-0.20
2018-02-08T18:08:47.899Z,-0.30
2018-02-08T18:11:13.977Z,-0.30
2018-02-08T18:13:40.054Z,-0.30
2018-02-08T18:16:06.131Z,-0.30
2018-02-08T18:18:32.213Z,-0.30
2018-02-08T18:20:58.316Z,-0.30
2018-02-08T18:23:24.478Z,-0.40
2018-02-08T18:25:50.570Z,-0.40
2018-02-08T18:28:16.655Z,-0.50
2018-02-08T18:30:42.734Z,-0.60
2018-02-08T18:33:08.802Z,-0.60
2018-02-08T18:35:34.868Z,-0.60
2018-02-08T18:38:00.957Z,-0.60
2018-02-08T18:40:27.049Z,-0.70
2018-02-08T18:42:53.156Z,-0.80
2018-02-08T18:45:19.542Z,-0.80
2018-02-08T18:47:45.606Z,-1.00
2018-02-08T18:50:13.165Z,-0.90
2018-02-08T18:52:39.238Z,-0.90
2018-02-08T18:55:05.306Z,-1.10
2018-02-08T18:57:31.370Z,-1.10
2018-02-08T18:59:57.498Z,-1.10
2018-02-08T19:02:24.308Z,-1.00
2018-02-08T19:04:50.735Z,-1.10
2018-02-08T19:07:16.805Z,-1.20
2018-02-08T19:09:42.865Z,-1.20
2018-02-08T19:12:08.955Z,-1.20
2018-02-08T19:14:35.785Z,-1.20
2018-02-08T19:17:02.651Z,-1.20
2018-02-08T19:19:28.721Z,-1.30
2018-02-08T19:21:55.089Z,-1.30
2018-02-08T19:24:22.008Z,-1.30
2018-02-08T19:26:48.078Z,-1.30
2018-02-08T19:29:14.206Z,-1.40
2018-02-08T19:31:40.298Z,-1.40
2018-02-08T19:34:06.361Z,-1.40
2018-02-08T19:36:32.429Z,-1.40
2018-02-08T19:38:58.502Z,-1.40
2018-02-08T19:41:24.574Z,-1.40
2018-02-08T19:43:50.662Z,-1.50
2018-02-08T19:46:16.734Z,-1.50
2018-02-08T19:48:42.810Z,-1.50
2018-02-08T19:51:09.126Z,-1.50
2018-02-08T19:53:35.219Z,-1.60
2018-02-08T19:56:01.332Z,-1.60
2018-02-08T19:58:27.417Z,-1.60
2018-02-08T20:00:53.486Z,-1.60
2018-02-08T20:03:19.549Z,-1.70
2018-02-08T20:05:45.638Z,-1.60
2018-02-08T20:08:11.714Z,-1.60
2018-02-08T20:10:37.802Z,-1.70
2018-02-08T20:13:03.875Z,-1.70
2018-02-08T20:15:31.940Z,-1.70
2018-02-08T20:17:58.018Z,-1.70
2018-02-08T20:20:24.085Z,-1.70
2018-02-08T20:22:50.385Z,-1.80
2018-02-08T20:25:18.081Z,-1.80
2018-02-08T20:27:44.146Z,-1.90
2018-02-08T20:30:10.221Z,-1.90
2018-02-08T20:32:36.290Z,-1.80
2018-02-08T20:35:02.413Z,-1.90
2018-02-08T20:37:28.502Z,-1.90
2018-02-08T20:39:54.586Z,-1.90
2018-02-08T20:42:26.846Z,-2.00
2018-02-08T20:44:52.924Z,-2.00
2018-02-08T20:47:19.005Z,-2.10
2018-02-08T20:49:51.146Z,-2.00
2018-02-08T20:52:17.216Z,-2.10
2018-02-08T20:54:43.355Z,-2.00
2018-02-08T20:57:16.501Z,-2.10
2018-02-08T20:59:42.578Z,-2.20
2018-02-08T21:02:08.714Z,-2.20
2018-02-08T21:04:34.796Z,-2.10
2018-02-08T21:07:00.862Z,-2.10
2018-02-08T21:09:26.941Z,-2.10
2018-02-08T21:11:53.073Z,-2.10
2018-02-08T21:14:19.891Z,-2.10
2018-02-08T21:16:45.958Z,-2.10
2018-02-08T21:19:12.021Z,-2.20
2018-02-08T21:21:38.086Z,-2.20
2018-02-08T21:24:04.167Z,-2.30
2018-02-08T21:26:30.234Z,-2.30
2018-02-08T21:28:56.374Z,-2.30
2018-02-08T21:31:23.211Z,-2.40
2018-02-08T21:33:49.286Z,-2.40
2018-02-08T21:36:15.374Z,-2.40
2018-02-08T21:38:42.174Z,-2.40
2018-02-08T21:41:08.240Z,-2.40
2018-02-08T21:43:34.317Z,-2.40
2018-02-08T21:46:00.411Z,-2.50
2018-02-08T21:48:27.070Z,-2.50
2018-02-08T21:50:53.157Z,-2.50
2018-02-08T21:53:19.218Z,-2.60
2018-02-08T21:55:45.630Z,-2.60
2018-02-08T21:58:11.689Z,-2.60
2018-02-08T22:00:37.756Z,-2.60
2018-02-08T22:03:03.828Z,-2.60
2018-02-08T22:05:29.890Z,-2.60
2018-02-08T22:07:55.968Z,-2.50
2018-02-08T22:10:22.066Z,-2.50
2018-02-08T22:12:48.890Z,-2.50
2018-02-08T22:15:14.961Z,-2.60
2018-02-08T22:17:41.037Z,-2.60
2018-02-08T22:20:07.109Z,-2.60
2018-02-08T22:22:33.645Z,-2.60
2018-02-08T22:24:59.724Z,-2.60
2018-02-08T22:27:25.793Z,-2.70
2018-02-08T22:29:51.878Z,-2.70
2018-02-08T22:32:17.963Z,-2.70
2018-02-08T22:34:44.029Z,-2.80
2018-02-08T22:37:10.862Z,-2.80
2018-02-08T22:39:36.931Z,-2.70
2018-02-08T22:42:03.036Z,-2.70
2018-02-08T22:44:29.153Z,-2.70
2018-02-08T22:46:55.981Z,-2.80
2018-02-08T22:49:22.075Z,-2.80
2018-02-08T22:51:48.133Z,-2.90
2018-02-08T22:54:14.208Z,-2.90
2018-02-08T22:56:40.350Z,-2.80
2018-02-08T22:59:06.422Z,-2.80
2018-02-08T23:01:33.245Z,-2.80
2018-02-08T23:03:59.305Z,-2.80
2018-02-08T23:06:25.374Z,-2.70
2018-02-08T23:08:51.446Z,-2.70
2018-02-08T23:11:18.261Z,-2.60
2018-02-08T23:13:44.329Z,-2.70
2018-02-08T23:16:10.398Z,-2.90
2018-02-08T23:18:36.489Z,-2.90
2018-02-08T23:21:02.565Z,-2.90
2018-02-08T23:23:28.644Z,-2.90
2018-02-08T23:25:54.773Z,-2.90
2018-02-08T23:28:20.853Z,-2.90
2018-02-08T23:30:47.697Z,-3.00
2018-02-08T23:33:13.769Z,-2.90
2018-02-08T23:35:39.834Z,-3.00
2018-02-08T23:38:05.902Z,-3.10
2018-02-08T23:40:31.985Z,-3.20
2018-02-08T23:42:58.057Z,-3.10
2018-02-08T23:45:24.148Z,-3.00
2018-02-08T23:47:50.978Z,-3.00
2018-02-08T23:50:17.045Z,-3.00
2018-02-08T23:52:43.114Z,-3.00
2018-02-08T23:55:09.189Z,-3.00
2018-02-08T23:57:35.334Z,-3.00
